Time;durP1;ratioP1;P1;durP2;ratioP2;P2;SDS_P1;SDS_P2;PMS_P1;PMS_P2;Temp;Humidity;BMP_temperature;BMP_pressure;BME280_temperature;BME280_humidity;BME280_pressure;Samples;Min_cycle;Max_cycle;Signal;HPM_P1;HPM_P2
2021/07/02 00:00:15;;;;;;;;;;;21.40;74.70;;;;;;5016283;28;1112;-72
2021/07/02 00:02:41;;;;;;;;;;;21.40;74.70;;;;;;5016077;28;1188;-73
2021/07/02 00:05:07;;;;;;;;;;;21.40;74.80;;;;;;5016208;28;1280;-73
2021/07/02 00:07:32;;;;;;;;;;;21.40;74.80;;;;;;4998620;28;1156;-74
2021/07/02 00:09:58;;;;;;;;;;;21.40;74.80;;;;;;5015936;28;1979;-74
2021/07/02 00:12:23;;;;;;;;;;;21.40;74.70;;;;;;4985698;28;1210;-72
2021/07/02 00:14:49;;;;;;;;;;;21.40;74.80;;;;;;5014435;28;1279;-73
2021/07/02 00:17:14;;;;;;;;;;;21.30;74.70;;;;;;5001788;28;1201;-72
2021/07/02 00:19:39;;;;;;;;;;;21.40;74.80;;;;;;5022806;28;1060;-73
2021/07/02 00:22:05;;;;;;;;;;;21.40;74.70;;;;;;5016024;28;1207;-73
2021/07/02 00:24:30;;;;;;;;;;;21.40;74.80;;;;;;4997953;28;1193;-73
2021/07/02 00:26:56;;;;;;;;;;;21.40;74.80;;;;;;5018586;28;1096;-72
2021/07/02 00:29:22;;;;;;;;;;;21.30;74.70;;;;;;4998242;28;1911;-70
2021/07/02 00:31:48;;;;;;;;;;;21.40;74.80;;;;;;5015456;28;1088;-69
2021/07/02 00:34:14;;;;;;;;;;;21.40;74.80;;;;;;5015448;28;1259;-71
2021/07/02 00:36:39;;;;;;;;;;;21.40;74.80;;;;;;5015538;28;1160;-71
2021/07/02 00:39:04;;;;;;;;;;;21.30;74.70;;;;;;4992710;28;1113;-72
2021/07/02 00:41:30;;;;;;;;;;;21.30;74.70;;;;;;5016429;28;1191;-72
2021/07/02 00:43:55;;;;;;;;;;;21.40;74.80;;;;;;5015301;28;1267;-72
2021/07/02 00:46:21;;;;;;;;;;;21.30;74.70;;;;;;5015273;28;1121;-70
2021/07/02 00:48:46;;;;;;;;;;;21.30;74.70;;;;;;5015438;28;1903;-70
2021/07/02 00:51:12;;;;;;;;;;;21.30;74.70;;;;;;5015473;28;1168;-73
2021/07/02 00:53:39;;;;;;;;;;;21.30;74.70;;;;;;5015039;28;1108;-73
2021/07/02 00:56:04;;;;;;;;;;;21.30;74.70;;;;;;4996811;28;1275;-73
2021/07/02 00:58:33;;;;;;;;;;;21.40;74.80;;;;;;4997746;28;1077;-70
2021/07/02 01:00:59;;;;;;;;;;;21.30;74.70;;;;;;5014902;28;1183;-71
2021/07/02 01:03:24;;;;;;;;;;;21.30;74.70;;;;;;5015008;28;1032;-70
2021/07/02 01:05:49;;;;;;;;;;;21.30;74.70;;;;;;5014721;28;1344;-71
2021/07/02 01:08:15;;;;;;;;;;;21.30;74.70;;;;;;5015155;28;1100;-70
2021/07/02 01:10:41;;;;;;;;;;;21.30;74.70;;;;;;5014771;28;1981;-72
2021/07/02 01:13:07;;;;;;;;;;;21.30;74.70;;;;;;5027253;28;1151;-72
2021/07/02 01:15:32;;;;;;;;;;;21.30;74.70;;;;;;5034388;28;1215;-72
2021/07/02 01:17:58;;;;;;;;;;;21.30;74.70;;;;;;5034776;28;1089;-73
2021/07/02 01:20:23;;;;;;;;;;;21.30;74.70;;;;;;5034846;28;1175;-73
2021/07/02 01:22:49;;;;;;;;;;;21.30;74.70;;;;;;5034329;28;1120;-73
2021/07/02 01:25:14;;;;;;;;;;;21.30;74.70;;;;;;5016587;28;1270;-73
2021/07/02 01:27:40;;;;;;;;;;;21.30;74.70;;;;;;5022472;28;1156;-73
2021/07/02 01:30:06;;;;;;;;;;;21.30;75.50;;;;;;5014339;28;1969;-73
2021/07/02 01:32:31;;;;;;;;;;;21.30;74.70;;;;;;5014928;28;1088;-70
2021/07/02 01:34:56;;;;;;;;;;;21.30;74.70;;;;;;5014008;28;1268;-71
2021/07/02 01:37:22;;;;;;;;;;;21.30;74.70;;;;;;5014561;28;1140;-71
2021/07/02 01:39:47;;;;;;;;;;;21.30;74.70;;;;;;5017267;28;1137;-71
2021/07/02 01:42:13;;;;;;;;;;;21.30;74.70;;;;;;5014597;28;1123;-72
2021/07/02 01:44:38;;;;;;;;;;;21.30;74.70;;;;;;5013798;28;1317;-72
2021/07/02 01:47:04;;;;;;;;;;;21.30;74.70;;;;;;5014261;28;1054;-74
2021/07/02 01:49:30;;;;;;;;;;;21.30;74.70;;;;;;4994849;28;1906;-73
2021/07/02 01:51:55;;;;;;;;;;;21.30;74.70;;;;;;5014439;28;1070;-73
2021/07/02 01:54:21;;;;;;;;;;;21.30;74.70;;;;;;5013937;28;1284;-74
2021/07/02 01:56:49;;;;;;;;;;;21.30;74.80;;;;;;4996788;28;1089;-73
2021/07/02 01:59:15;;;;;;;;;;;21.30;74.70;;;;;;4996789;28;1093;-71
2021/07/02 02:01:40;;;;;;;;;;;21.30;74.70;;;;;;5013980;28;1136;-71
2021/07/02 02:04:06;;;;;;;;;;;21.30;74.70;;;;;;5013773;28;1271;-71
2021/07/02 02:06:31;;;;;;;;;;;21.30;74.80;;;;;;5013708;28;1057;-71
2021/07/02 02:08:57;;;;;;;;;;;21.30;74.70;;;;;;5013940;28;1971;-70
2021/07/02 02:11:22;;;;;;;;;;;21.30;74.70;;;;;;5013962;28;1160;-72
2021/07/02 02:13:48;;;;;;;;;;;21.30;74.70;;;;;;5031754;28;981;-71
2021/07/02 02:16:13;;;;;;;;;;;21.30;74.70;;;;;;5033432;28;1294;-69
2021/07/02 02:18:38;;;;;;;;;;;21.30;74.70;;;;;;5015808;28;1189;-72
2021/07/02 02:21:04;;;;;;;;;;;21.30;74.70;;;;;;5030059;28;1096;-71
2021/07/02 02:23:29;;;;;;;;;;;21.30;74.80;;;;;;5020563;28;1300;-69
2021/07/02 02:25:55;;;;;;;;;;;21.30;74.70;;;;;;5004564;28;1275;-71
2021/07/02 02:28:20;;;;;;;;;;;21.30;74.70;;;;;;5021157;28;1311;-72
2021/07/02 02:30:46;;;;;;;;;;;21.30;74.70;;;;;;5004157;28;1969;-73
2021/07/02 02:33:12;;;;;;;;;;;21.30;74.70;;;;;;5030957;28;1394;-74
2021/07/02 02:35:37;;;;;;;;;;;21.30;74.70;;;;;;5033404;28;1398;-74
2021/07/02 02:38:02;;;;;;;;;;;21.30;74.70;;;;;;5015802;28;1460;-73
2021/07/02 02:40:28;;;;;;;;;;;21.30;74.70;;;;;;5004536;28;1205;-71
2021/07/02 02:42:53;;;;;;;;;;;21.30;74.70;;;;;;4995666;28;1351;-70
2021/07/02 02:45:19;;;;;;;;;;;21.30;74.70;;;;;;5013314;28;1415;-69
2021/07/02 02:47:44;;;;;;;;;;;21.30;74.80;;;;;;5013642;28;1408;-70
2021/07/02 02:50:09;;;;;;;;;;;21.30;74.80;;;;;;5013366;28;1902;-71
2021/07/02 02:52:35;;;;;;;;;;;21.30;74.70;;;;;;5013404;28;1514;-70
2021/07/02 02:55:00;;;;;;;;;;;21.30;74.70;;;;;;5012834;28;1670;-72
2021/07/02 02:57:26;;;;;;;;;;;21.30;74.80;;;;;;5013113;28;1089;-72
2021/07/02 02:59:51;;;;;;;;;;;21.30;74.70;;;;;;5013148;28;1148;-71
2021/07/02 03:02:17;;;;;;;;;;;21.30;74.80;;;;;;5013228;28;971;-70
2021/07/02 03:04:42;;;;;;;;;;;21.30;74.70;;;;;;4995041;28;1273;-71
2021/07/02 03:07:07;;;;;;;;;;;21.30;74.70;;;;;;5013051;28;1198;-72
2021/07/02 03:09:33;;;;;;;;;;;21.30;74.70;;;;;;5013071;28;1978;-71
2021/07/02 03:11:58;;;;;;;;;;;21.30;74.70;;;;;;4998790;28;1179;-72
2021/07/02 03:14:24;;;;;;;;;;;21.30;74.70;;;;;;5014966;28;1263;-72
2021/07/02 03:16:49;;;;;;;;;;;21.30;74.80;;;;;;5032658;28;1143;-71
2021/07/02 03:19:15;;;;;;;;;;;21.30;74.80;;;;;;5016656;28;1123;-72
2021/07/02 03:21:40;;;;;;;;;;;21.30;74.70;;;;;;5036724;28;1139;-71
2021/07/02 03:24:06;;;;;;;;;;;21.30;74.80;;;;;;5036565;28;1265;-71
2021/07/02 03:26:31;;;;;;;;;;;21.30;74.80;;;;;;5033279;28;1076;-71
2021/07/02 03:28:57;;;;;;;;;;;21.30;74.80;;;;;;5016891;28;1906;-71
2021/07/02 03:31:22;;;;;;;;;;;21.30;74.70;;;;;;5016800;28;1223;-72
2021/07/02 03:33:47;;;;;;;;;;;21.30;74.80;;;;;;5016617;28;1139;-71
2021/07/02 03:36:13;;;;;;;;;;;21.30;74.70;;;;;;4999095;28;1648;-71
2021/07/02 03:38:38;;;;;;;;;;;21.30;74.80;;;;;;5026646;28;1163;-71
2021/07/02 03:41:04;;;;;;;;;;;21.30;74.70;;;;;;5019638;28;1073;-72
2021/07/02 03:43:29;;;;;;;;;;;21.30;74.80;;;;;;5019059;28;1277;-72
2021/07/02 03:45:55;;;;;;;;;;;21.30;74.80;;;;;;5024992;28;1290;-72
2021/07/02 03:48:20;;;;;;;;;;;21.30;74.80;;;;;;5021780;28;1233;-71
2021/07/02 03:50:45;;;;;;;;;;;21.30;74.70;;;;;;5001151;28;1895;-71
2021/07/02 03:53:11;;;;;;;;;;;21.30;74.80;;;;;;5016456;28;1689;-72
2021/07/02 03:55:36;;;;;;;;;;;21.30;74.80;;;;;;5012178;28;1263;-72
2021/07/02 03:58:02;;;;;;;;;;;21.30;74.80;;;;;;5016573;28;837;-72
2021/07/02 04:00:28;;;;;;;;;;;21.30;74.80;;;;;;5001856;28;1530;-72
2021/07/02 04:02:53;;;;;;;;;;;21.30;74.80;;;;;;5016070;28;1414;-72
2021/07/02 04:05:18;;;;;;;;;;;21.30;74.80;;;;;;4998427;28;1271;-71
2021/07/02 04:07:44;;;;;;;;;;;21.30;74.80;;;;;;5016341;28;1124;-71
2021/07/02 04:10:09;;;;;;;;;;;21.30;74.80;;;;;;5016032;28;1918;-71
2021/07/02 04:12:35;;;;;;;;;;;21.30;75.50;;;;;;5024085;28;1064;-71
2021/07/02 04:15:00;;;;;;;;;;;21.30;74.80;;;;;;5017688;28;1265;-71
2021/07/02 04:17:26;;;;;;;;;;;21.30;74.80;;;;;;5035853;28;1116;-72
2021/07/02 04:19:51;;;;;;;;;;;21.30;74.80;;;;;;5018142;28;1088;-72
2021/07/02 04:22:17;;;;;;;;;;;21.30;74.80;;;;;;5035721;28;1084;-71
2021/07/02 04:24:42;;;;;;;;;;;21.30;74.80;;;;;;5035335;28;1282;-72
2021/07/02 04:27:08;;;;;;;;;;;21.30;74.80;;;;;;5010410;28;1156;-72
2021/07/02 04:29:33;;;;;;;;;;;21.30;74.80;;;;;;5015650;28;1910;-71
2021/07/02 04:31:59;;;;;;;;;;;21.30;74.80;;;;;;5014506;28;1143;-72
2021/07/02 04:34:24;;;;;;;;;;;21.30;74.80;;;;;;5015372;28;1270;-72
2021/07/02 04:36:49;;;;;;;;;;;21.30;74.80;;;;;;5015654;28;1128;-72
2021/07/02 04:39:15;;;;;;;;;;;21.30;74.80;;;;;;5018278;28;1124;-72
2021/07/02 04:41:40;;;;;;;;;;;21.30;74.80;;;;;;5015421;28;1080;-72
2021/07/02 04:44:06;;;;;;;;;;;21.30;74.80;;;;;;4997723;28;1214;-72
2021/07/02 04:46:31;;;;;;;;;;;21.30;74.80;;;;;;5015567;28;1080;-72
2021/07/02 04:48:57;;;;;;;;;;;21.30;74.80;;;;;;5015401;28;1894;-72
2021/07/02 04:51:22;;;;;;;;;;;21.30;74.80;;;;;;5015362;28;1081;-72
2021/07/02 04:53:48;;;;;;;;;;;21.30;74.80;;;;;;4997486;28;1093;-72
2021/07/02 04:56:13;;;;;;;;;;;21.30;74.80;;;;;;4997566;28;1319;-71
2021/07/02 04:58:39;;;;;;;;;;;21.30;74.80;;;;;;4997823;28;1077;-72
2021/07/02 05:01:05;;;;;;;;;;;21.30;74.80;;;;;;5004346;28;1070;-72
2021/07/02 05:03:31;;;;;;;;;;;21.30;74.80;;;;;;5034747;28;1080;-72
2021/07/02 05:05:56;;;;;;;;;;;21.30;74.80;;;;;;5015007;28;1294;-71
2021/07/02 05:08:24;;;;;;;;;;;21.30;74.90;;;;;;5015064;28;1049;-71
2021/07/02 05:10:49;;;;;;;;;;;21.30;74.80;;;;;;4997613;28;1914;-71
2021/07/02 05:13:14;;;;;;;;;;;21.30;74.80;;;;;;5028442;28;1084;-71
2021/07/02 05:15:40;;;;;;;;;;;21.30;74.80;;;;;;5017085;28;1268;-71
2021/07/02 05:18:05;;;;;;;;;;;21.30;74.80;;;;;;5034705;28;1162;-71
2021/07/02 05:20:31;;;;;;;;;;;21.30;74.80;;;;;;5034674;28;1080;-71
2021/07/02 05:22:56;;;;;;;;;;;21.30;74.80;;;;;;5034395;28;1052;-71
2021/07/02 05:25:22;;;;;;;;;;;21.30;74.80;;;;;;5034243;28;1308;-71
2021/07/02 05:27:47;;;;;;;;;;;21.30;74.80;;;;;;5020997;28;1171;-71
2021/07/02 05:30:13;;;;;;;;;;;21.30;74.80;;;;;;5014927;28;1967;-72
2021/07/02 05:32:38;;;;;;;;;;;21.30;74.80;;;;;;5014556;28;1125;-72
2021/07/02 05:35:04;;;;;;;;;;;21.30;74.80;;;;;;4996959;28;1293;-72
2021/07/02 05:37:30;;;;;;;;;;;21.30;74.80;;;;;;5014384;28;1069;-72
2021/07/02 05:39:56;;;;;;;;;;;21.30;74.80;;;;;;5016730;28;1179;-71
2021/07/02 05:42:24;;;;;;;;;;;21.30;74.80;;;;;;5013976;28;1060;-71
2021/07/02 05:44:49;;;;;;;;;;;21.30;74.80;;;;;;5014150;28;1200;-72
2021/07/02 05:47:15;;;;;;;;;;;21.30;74.70;;;;;;4996788;28;1065;-72
2021/07/02 05:49:40;;;;;;;;;;;21.30;74.80;;;;;;5014439;28;1957;-73
2021/07/02 05:52:06;;;;;;;;;;;21.30;75.10;;;;;;4994838;28;1891;-70
2021/07/02 05:54:31;;;;;;;;;;;21.30;75.10;;;;;;5026568;28;1360;-70
2021/07/02 05:56:57;;;;;;;;;;;21.30;75.20;;;;;;5025804;28;1291;-70
2021/07/02 05:59:22;;;;;;;;;;;21.30;75.90;;;;;;5013467;28;1446;-71
2021/07/02 06:01:48;;;;;;;;;;;21.30;75.10;;;;;;5013232;28;1065;-71
2021/07/02 06:04:14;;;;;;;;;;;21.30;75.10;;;;;;5012617;28;1357;-70
2021/07/02 06:06:40;;;;;;;;;;;21.30;75.10;;;;;;5013149;28;1163;-70
2021/07/02 06:09:05;;;;;;;;;;;21.30;75.10;;;;;;5012576;28;1922;-73
2021/07/02 06:11:30;;;;;;;;;;;21.30;75.10;;;;;;4995614;28;1096;-74
2021/07/02 06:13:56;;;;;;;;;;;21.30;75.10;;;;;;5032725;28;1283;-72
2021/07/02 06:16:21;;;;;;;;;;;21.30;75.10;;;;;;5032493;28;2245;-72
2021/07/02 06:18:47;;;;;;;;;;;21.30;75.10;;;;;;5025755;28;1179;-72
2021/07/02 06:21:12;;;;;;;;;;;21.30;75.10;;;;;;5022213;28;1166;-71
2021/07/02 06:23:38;;;;;;;;;;;21.30;75.10;;;;;;5019439;28;1175;-71
2021/07/02 06:26:04;;;;;;;;;;;21.30;75.10;;;;;;5017554;28;1233;-71
2021/07/02 06:28:30;;;;;;;;;;;21.30;75.10;;;;;;5006272;28;1267;-71
2021/07/02 06:30:55;;;;;;;;;;;21.30;75.10;;;;;;5025543;28;1898;-71
2021/07/02 06:33:22;;;;;;;;;;;21.30;75.10;;;;;;5015479;28;1176;-71
2021/07/02 06:35:47;;;;;;;;;;;21.30;75.00;;;;;;5006030;28;1205;-71
2021/07/02 06:38:13;;;;;;;;;;;21.30;75.10;;;;;;5027403;28;1064;-73
2021/07/02 06:40:38;;;;;;;;;;;21.30;75.10;;;;;;5021303;28;1115;-72
2021/07/02 06:43:04;;;;;;;;;;;21.30;75.10;;;;;;5031370;28;1183;-73
2021/07/02 06:45:29;;;;;;;;;;;21.30;75.10;;;;;;5033080;28;1257;-73
2021/07/02 06:47:56;;;;;;;;;;;21.30;75.10;;;;;;5033018;28;1085;-72
2021/07/02 06:50:21;;;;;;;;;;;21.30;75.00;;;;;;5033061;28;1902;-73
2021/07/02 06:52:47;;;;;;;;;;;21.30;75.10;;;;;;4998525;28;1389;-72
2021/07/02 06:55:12;;;;;;;;;;;21.30;75.00;;;;;;5002752;28;1237;-73
2021/07/02 06:57:38;;;;;;;;;;;21.30;75.00;;;;;;5013184;28;1125;-73
2021/07/02 07:00:03;;;;;;;;;;;21.30;75.00;;;;;;5013081;28;1069;-72
2021/07/02 07:02:29;;;;;;;;;;;21.30;75.00;;;;;;4995583;28;1113;-73
2021/07/02 07:04:54;;;;;;;;;;;21.30;75.00;;;;;;5012651;28;1256;-73
2021/07/02 07:07:20;;;;;;;;;;;21.30;75.00;;;;;;5013056;28;1214;-73
2021/07/02 07:09:45;;;;;;;;;;;21.30;75.00;;;;;;5013054;28;1959;-72
2021/07/02 07:12:11;;;;;;;;;;;21.30;75.00;;;;;;5017905;28;1164;-72
2021/07/02 07:14:36;;;;;;;;;;;21.30;75.00;;;;;;5032470;28;1279;-73
2021/07/02 07:17:03;;;;;;;;;;;21.30;75.00;;;;;;5032972;28;1136;-72
2021/07/02 07:19:29;;;;;;;;;;;21.30;75.00;;;;;;5032898;28;1049;-72
2021/07/02 07:21:55;;;;;;;;;;;21.30;75.00;;;;;;5015075;28;1108;-72
2021/07/02 07:24:23;;;;;;;;;;;21.30;75.00;;;;;;5032174;28;1349;-72
2021/07/02 07:26:49;;;;;;;;;;;21.30;75.00;;;;;;5027040;28;1112;-73
2021/07/02 07:29:14;;;;;;;;;;;21.30;74.90;;;;;;4995292;28;1962;-73
2021/07/02 07:31:40;;;;;;;;;;;21.30;75.00;;;;;;5012902;28;1187;-72
2021/07/02 07:34:05;;;;;;;;;;;21.30;75.00;;;;;;5012531;28;1261;-72
2021/07/02 07:36:32;;;;;;;;;;;21.30;75.00;;;;;;5012723;28;1245;-72
2021/07/02 07:38:57;;;;;;;;;;;21.30;75.00;;;;;;4996755;28;1147;-72
2021/07/02 07:41:24;;;;;;;;;;;21.30;75.00;;;;;;5013929;28;1064;-72
2021/07/02 07:43:49;;;;;;;;;;;21.30;75.80;;;;;;5012544;28;1116;-72
2021/07/02 07:46:15;;;;;;;;;;;21.30;75.00;;;;;;5013001;28;1241;-73
2021/07/02 07:48:40;;;;;;;;;;;21.30;75.00;;;;;;4995292;28;1125;-72
2021/07/02 07:53:58;;;;;;;;;;;21.30;75.00;;;;;;4999188;28;1435;-72
2021/07/02 07:56:23;;;;;;;;;;;21.30;75.00;;;;;;4986978;28;1460;-73
2021/07/02 07:58:48;;;;;;;;;;;21.30;75.00;;;;;;4999914;28;1219;-72
2021/07/02 08:01:14;;;;;;;;;;;21.30;74.90;;;;;;5012565;28;1065;-72
2021/07/02 08:03:39;;;;;;;;;;;21.30;74.90;;;;;;4994924;28;1203;-72
2021/07/02 08:06:05;;;;;;;;;;;21.30;74.90;;;;;;4997101;28;1673;-72
2021/07/02 08:08:30;;;;;;;;;;;21.30;74.90;;;;;;5016362;28;1490;-72
2021/07/02 08:10:56;;;;;;;;;;;21.30;74.90;;;;;;5016441;28;1971;-72
2021/07/02 08:13:22;;;;;;;;;;;21.30;74.90;;;;;;5013013;28;1294;-72
2021/07/02 08:15:47;;;;;;;;;;;21.30;74.90;;;;;;5036195;28;1398;-72
2021/07/02 08:18:13;;;;;;;;;;;21.30;74.90;;;;;;5035897;28;1381;-72
2021/07/02 08:20:38;;;;;;;;;;;21.30;74.90;;;;;;5035896;28;1166;-72
2021/07/02 08:23:08;;;;;;;;;;;21.30;74.90;;;;;;5017837;28;1378;-72
2021/07/02 08:25:34;;;;;;;;;;;21.30;74.90;;;;;;5035838;28;1425;-72
2021/07/02 08:30:43;;;;;;;;;;;21.30;74.90;;;;;;5016052;28;1977;-73
2021/07/02 08:33:14;;;;;;;;;;;21.30;74.90;;;;;;5015482;28;1404;-72
2021/07/02 08:35:40;;;;;;;;;;;21.30;74.90;;;;;;5015817;28;1645;-72
2021/07/02 08:38:05;;;;;;;;;;;21.30;75.00;;;;;;4998191;28;1453;-72
2021/07/02 08:40:31;;;;;;;;;;;21.30;75.00;;;;;;5018101;28;1494;-72
2021/07/02 08:42:56;;;;;;;;;;;21.30;75.00;;;;;;5015427;28;1704;-72
2021/07/02 08:45:21;;;;;;;;;;;21.30;74.90;;;;;;5015481;28;1632;-72
2021/07/02 08:47:47;;;;;;;;;;;21.30;74.90;;;;;;5015647;28;1407;-73
2021/07/02 08:50:12;;;;;;;;;;;21.30;75.70;;;;;;5015579;28;1965;-71
2021/07/02 08:52:38;;;;;;;;;;;21.30;74.90;;;;;;5015550;28;1634;-72
2021/07/02 08:55:04;;;;;;;;;;;21.30;75.00;;;;;;5015229;28;1281;-72
2021/07/02 08:57:30;;;;;;;;;;;21.30;74.90;;;;;;5015645;28;1108;-72
2021/07/02 08:59:56;;;;;;;;;;;21.30;74.90;;;;;;5015490;28;1276;-72
2021/07/02 09:02:28;;;;;;;;;;;21.30;74.90;;;;;;5015335;28;1419;-72
2021/07/02 09:04:53;;;;;;;;;;;21.30;74.90;;;;;;5014902;28;1371;-72
2021/07/02 09:07:19;;;;;;;;;;;21.30;74.90;;;;;;5015307;28;1258;-72
2021/07/02 09:09:51;;;;;;;;;;;21.30;74.90;;;;;;5015338;28;1911;-72
2021/07/02 09:12:21;;;;;;;;;;;21.30;74.90;;;;;;5003215;28;1400;-72
2021/07/02 09:15:04;;;;;;;;;;;21.30;74.90;;;;;;5034662;28;1379;-72
2021/07/02 09:17:30;;;;;;;;;;;21.30;74.90;;;;;;5034008;28;1656;-72
2021/07/02 09:20:01;;;;;;;;;;;21.30;74.90;;;;;;5034896;28;1633;-72
2021/07/02 09:22:26;;;;;;;;;;;21.30;74.90;;;;;;5034918;28;1656;-72
2021/07/02 09:24:52;;;;;;;;;;;21.30;74.90;;;;;;5034289;28;1252;-72
2021/07/02 09:27:37;;;;;;;;;;;21.30;74.90;;;;;;5007597;28;1414;-72
2021/07/02 09:30:11;;;;;;;;;;;21.30;74.90;;;;;;5014844;28;1910;-72
2021/07/02 09:32:37;;;;;;;;;;;21.30;74.90;;;;;;4997624;28;1372;-72
2021/07/02 09:35:03;;;;;;;;;;;21.30;74.80;;;;;;5014235;28;1445;-72
2021/07/02 09:37:30;;;;;;;;;;;21.30;74.80;;;;;;5014390;28;1465;-72
2021/07/02 09:39:56;;;;;;;;;;;21.30;74.80;;;;;;4999778;28;1448;-72
2021/07/02 09:42:25;;;;;;;;;;;21.30;74.80;;;;;;4996929;28;1155;-72
2021/07/02 09:45:03;;;;;;;;;;;21.30;74.80;;;;;;4996793;28;1559;-72
2021/07/02 09:47:29;;;;;;;;;;;21.30;74.80;;;;;;4996826;28;1565;-72
2021/07/02 09:50:10;;;;;;;;;;;21.30;74.80;;;;;;4996827;28;1968;-71
2021/07/02 09:52:40;;;;;;;;;;;21.30;74.80;;;;;;4996862;28;1481;-72
2021/07/02 09:55:06;;;;;;;;;;;21.30;74.90;;;;;;5014043;28;1618;-72
2021/07/02 09:57:32;;;;;;;;;;;21.30;74.90;;;;;;5009204;28;1393;-68
2021/07/02 10:00:26;;;;;;;;;;;21.30;75.60;;;;;;5024172;28;1503;-71
2021/07/02 10:02:56;;;;;;;;;;;21.30;74.90;;;;;;5014953;28;1283;-71
2021/07/02 10:05:21;;;;;;;;;;;21.30;74.90;;;;;;5032939;28;1620;-71
2021/07/02 10:07:56;;;;;;;;;;;21.30;74.90;;;;;;5015560;28;1420;-71
2021/07/02 10:10:22;;;;;;;;;;;21.30;74.90;;;;;;5033769;28;1910;-73
2021/07/02 10:12:47;;;;;;;;;;;21.30;74.90;;;;;;5006283;28;1616;-72
2021/07/02 10:15:13;;;;;;;;;;;21.30;74.90;;;;;;4996364;28;1296;-72
2021/07/02 10:17:38;;;;;;;;;;;21.30;74.90;;;;;;5014207;28;1628;-73
2021/07/02 10:20:04;;;;;;;;;;;21.30;75.20;;;;;;4996551;28;1718;-73
2021/07/02 10:22:29;;;;;;;;;;;21.30;74.90;;;;;;4999405;28;1987;-72
2021/07/02 10:24:55;;;;;;;;;;;21.30;74.90;;;;;;5031452;28;1462;-74
2021/07/02 10:27:20;;;;;;;;;;;21.30;74.90;;;;;;5020721;28;1511;-74
2021/07/02 10:29:46;;;;;;;;;;;21.30;74.90;;;;;;5003764;28;1953;-72
2021/07/02 10:32:11;;;;;;;;;;;21.30;74.90;;;;;;5031356;28;3178;-73
2021/07/02 10:34:37;;;;;;;;;;;21.30;74.90;;;;;;5023111;28;1510;-73
2021/07/02 10:37:02;;;;;;;;;;;21.30;75.00;;;;;;4996256;28;1669;-73
2021/07/02 10:39:31;;;;;;;;;;;21.30;74.90;;;;;;4998995;28;1423;-72
2021/07/02 10:42:07;;;;;;;;;;;21.30;75.00;;;;;;4996138;28;1386;-73
2021/07/02 10:44:32;;;;;;;;;;;21.30;75.00;;;;;;5012500;28;1465;-73
2021/07/02 10:46:57;;;;;;;;;;;21.30;75.00;;;;;;5005515;28;1345;-73
2021/07/02 10:49:33;;;;;;;;;;;21.30;75.00;;;;;;5013272;28;1976;-73
2021/07/02 10:51:59;;;;;;;;;;;21.30;75.00;;;;;;4995957;28;1164;-73
2021/07/02 10:54:26;;;;;;;;;;;21.30;75.00;;;;;;4995557;28;1627;-72
2021/07/02 10:57:01;;;;;;;;;;;21.30;75.00;;;;;;5013370;28;1856;-74
2021/07/02 10:59:35;;;;;;;;;;;21.30;75.00;;;;;;5013483;28;1725;-73
2021/07/02 11:02:10;;;;;;;;;;;21.30;75.00;;;;;;5013175;28;1431;-73
2021/07/02 11:04:36;;;;;;;;;;;21.30;75.00;;;;;;4995417;28;1379;-73
2021/07/02 11:07:02;;;;;;;;;;;21.30;75.00;;;;;;4995652;28;1644;-72
2021/07/02 11:09:54;;;;;;;;;;;21.30;75.00;;;;;;5021614;28;1951;-72
2021/07/02 11:12:20;;;;;;;;;;;21.30;75.00;;;;;;4995978;28;1660;-72
2021/07/02 11:14:51;;;;;;;;;;;21.30;75.00;;;;;;5013018;28;1656;-72
2021/07/02 11:17:23;;;;;;;;;;;21.30;74.90;;;;;;5013215;28;1184;-72
2021/07/02 11:19:49;;;;;;;;;;;21.30;74.90;;;;;;5026577;28;1487;-72
2021/07/02 11:22:24;;;;;;;;;;;21.30;74.80;;;;;;5032134;28;2356;-72
2021/07/02 11:25:09;;;;;;;;;;;21.30;74.90;;;;;;5032113;28;2290;-73
2021/07/02 11:27:46;;;;;;;;;;;21.30;74.90;;;;;;5019541;28;1397;-72
2021/07/02 11:30:11;;;;;;;;;;;21.30;74.90;;;;;;5014552;28;2030;-73
2021/07/02 11:32:37;;;;;;;;;;;21.30;74.90;;;;;;5028894;28;1466;-73
2021/07/02 11:35:29;;;;;;;;;;;21.30;74.90;;;;;;5013940;28;1442;-72
2021/07/02 11:38:04;;;;;;;;;;;21.30;74.90;;;;;;5026275;28;1513;-72
2021/07/02 11:40:40;;;;;;;;;;;21.30;74.90;;;;;;5006816;28;1537;-72
2021/07/02 11:43:06;;;;;;;;;;;21.30;74.80;;;;;;5016724;28;1703;-72
2021/07/02 11:45:35;;;;;;;;;;;21.30;74.80;;;;;;5016786;28;1423;-72
2021/07/02 11:48:01;;;;;;;;;;;21.30;74.80;;;;;;5016736;28;1464;-73
2021/07/02 11:50:39;;;;;;;;;;;21.30;74.80;;;;;;4999234;28;1895;-71
2021/07/02 11:53:04;;;;;;;;;;;21.30;74.80;;;;;;5005442;28;1388;-73
2021/07/02 11:55:30;;;;;;;;;;;21.30;74.80;;;;;;5005428;28;1290;-73
2021/07/02 11:58:16;;;;;;;;;;;21.30;74.70;;;;;;5012269;28;1361;-71
2021/07/02 12:00:41;;;;;;;;;;;21.30;74.70;;;;;;5015971;28;1132;-72
2021/07/02 12:03:07;;;;;;;;;;;21.30;74.80;;;;;;4998746;28;1646;-70
2021/07/02 12:05:32;;;;;;;;;;;21.30;74.90;;;;;;5024293;28;2100;-72
2021/07/02 12:07:58;;;;;;;;;;;21.30;75.00;;;;;;5021415;28;1531;-72
2021/07/02 12:10:23;;;;;;;;;;;21.30;75.00;;;;;;5031775;28;1936;-72
2021/07/02 12:12:49;;;;;;;;;;;21.30;75.00;;;;;;5009096;28;1427;-73
2021/07/02 12:15:22;;;;;;;;;;;21.30;75.00;;;;;;5036241;28;1394;-72
2021/07/02 12:17:58;;;;;;;;;;;21.30;74.80;;;;;;5035903;28;1342;-72
2021/07/02 12:20:23;;;;;;;;;;;21.30;74.90;;;;;;5035941;28;1410;-73
2021/07/02 12:22:59;;;;;;;;;;;21.30;74.90;;;;;;5034331;28;2098;-73
2021/07/02 12:25:24;;;;;;;;;;;21.30;75.00;;;;;;5023901;28;2019;-72
2021/07/02 12:27:56;;;;;;;;;;;21.30;74.90;;;;;;5032129;28;1567;-73
2021/07/02 12:30:21;;;;;;;;;;;21.30;74.90;;;;;;5029023;28;1928;-73
2021/07/02 12:32:50;;;;;;;;;;;21.30;75.00;;;;;;5021569;28;1233;-72
2021/07/02 12:35:15;;;;;;;;;;;21.30;75.00;;;;;;5020490;28;1709;-72
2021/07/02 12:37:41;;;;;;;;;;;21.30;75.00;;;;;;5022378;28;1465;-72
2021/07/02 12:40:07;;;;;;;;;;;21.30;75.00;;;;;;5027998;28;1385;-72
2021/07/02 12:42:33;;;;;;;;;;;21.30;75.00;;;;;;5015966;28;1384;-72
2021/07/02 12:44:59;;;;;;;;;;;21.30;75.00;;;;;;4997930;28;1397;-72
2021/07/02 12:47:25;;;;;;;;;;;21.30;75.00;;;;;;4998247;28;1657;-72
2021/07/02 12:49:53;;;;;;;;;;;21.30;75.00;;;;;;4998140;28;1907;-72
2021/07/02 12:54:48;;;;;;;;;;;21.30;75.00;;;;;;5015631;28;1353;-72
2021/07/02 12:57:14;;;;;;;;;;;21.30;75.00;;;;;;5015481;28;1371;-71
2021/07/02 12:59:43;;;;;;;;;;;21.30;74.90;;;;;;4998054;28;1679;-72
2021/07/02 13:02:09;;;;;;;;;;;21.30;74.90;;;;;;4997828;28;1313;-71
2021/07/02 13:04:43;;;;;;;;;;;21.30;74.90;;;;;;5014844;28;1642;-71
2021/07/02 13:07:09;;;;;;;;;;;21.30;74.90;;;;;;4997524;28;1973;-72
2021/07/02 13:09:35;;;;;;;;;;;21.30;75.00;;;;;;5019723;28;1962;-72
2021/07/02 13:12:12;;;;;;;;;;;21.30;74.80;;;;;;5021070;28;1712;-74
2021/07/02 13:14:42;;;;;;;;;;;21.30;74.90;;;;;;5022822;28;1355;-75
2021/07/02 13:17:11;;;;;;;;;;;21.30;74.80;;;;;;5015260;28;1635;-75
2021/07/02 13:19:36;;;;;;;;;;;21.30;74.80;;;;;;5014808;28;1585;-74
2021/07/02 13:22:14;;;;;;;;;;;21.30;74.80;;;;;;5014612;28;1682;-74
2021/07/02 13:24:40;;;;;;;;;;;21.30;74.80;;;;;;5014574;28;1272;-74
2021/07/02 13:27:05;;;;;;;;;;;21.30;74.80;;;;;;4999838;28;1418;-74
2021/07/02 13:29:31;;;;;;;;;;;21.30;74.80;;;;;;4997858;28;1898;-74
2021/07/02 13:31:57;;;;;;;;;;;21.30;74.80;;;;;;5027417;28;1799;-74
2021/07/02 13:34:43;;;;;;;;;;;21.30;74.80;;;;;;5003096;28;1362;-74
2021/07/02 13:37:08;;;;;;;;;;;21.30;74.80;;;;;;5013952;28;1383;-74
2021/07/02 13:39:42;;;;;;;;;;;21.30;74.80;;;;;;4999596;28;1724;-73
2021/07/02 13:42:08;;;;;;;;;;;21.30;74.80;;;;;;4997395;28;1389;-74
2021/07/02 13:44:34;;;;;;;;;;;21.30;74.70;;;;;;4996667;28;1643;-74
2021/07/02 13:47:00;;;;;;;;;;;21.30;74.70;;;;;;4997035;28;1391;-74
2021/07/02 13:49:26;;;;;;;;;;;21.30;74.70;;;;;;5014860;28;1910;-73
2021/07/02 13:51:51;;;;;;;;;;;21.30;74.70;;;;;;5014410;28;1433;-74
2021/07/02 13:54:17;;;;;;;;;;;21.30;74.70;;;;;;5014177;28;1647;-74
2021/07/02 13:56:49;;;;;;;;;;;21.30;74.70;;;;;;4997140;28;1641;-74
2021/07/02 13:59:15;;;;;;;;;;;21.30;74.70;;;;;;5014326;28;1412;-74
2021/07/02 14:01:40;;;;;;;;;;;21.30;74.70;;;;;;4996823;28;1687;-74
2021/07/02 14:04:06;;;;;;;;;;;21.30;74.60;;;;;;4995881;28;1619;-74
2021/07/02 14:06:31;;;;;;;;;;;21.30;74.70;;;;;;5014105;28;1407;-74
2021/07/02 14:08:56;;;;;;;;;;;21.30;74.60;;;;;;5013998;28;1969;-73
2021/07/02 14:11:22;;;;;;;;;;;21.30;74.70;;;;;;5007985;28;1616;-74
2021/07/02 14:13:47;;;;;;;;;;;21.30;74.70;;;;;;4998008;28;1627;-74
2021/07/02 14:16:13;;;;;;;;;;;21.30;74.70;;;;;;5018880;28;1162;-74
2021/07/02 14:18:38;;;;;;;;;;;21.30;74.60;;;;;;5031043;28;1405;-74
2021/07/02 14:21:04;;;;;;;;;;;21.30;74.60;;;;;;5033655;28;1665;-74
2021/07/02 14:23:30;;;;;;;;;;;21.30;74.60;;;;;;5033272;28;1350;-74
2021/07/02 14:25:55;;;;;;;;;;;21.30;74.50;;;;;;5015952;28;1608;-74
2021/07/02 14:28:21;;;;;;;;;;;21.30;74.50;;;;;;5016017;28;1608;-74
2021/07/02 14:30:46;;;;;;;;;;;21.30;74.50;;;;;;5013908;28;1902;-74
2021/07/02 14:33:11;;;;;;;;;;;21.30;74.50;;;;;;5013199;28;1413;-74
2021/07/02 14:35:37;;;;;;;;;;;21.30;74.50;;;;;;5013666;28;1661;-74